Time;durP1;ratioP1;P1;durP2;ratioP2;P2;SDS_P1;SDS_P2;PMS_P1;PMS_P2;Temp;Humidity;BMP_temperature;BMP_pressure;BME280_temperature;BME280_humidity;BME280_pressure;Samples;Min_cycle;Max_cycle;Signal;HPM_P1;HPM_P2
2023/09/22 00:00:43;;;;;;;11.00;6.60;;;;;;;;;;4906262;29;20293;-80
2023/09/22 00:03:08;;;;;;;8.25;6.40;;;;;;;;;;4918564;29;20297;-80
2023/09/22 00:05:35;;;;;;;8.40;6.15;;;;;;;;;;4915256;29;20039;-80
2023/09/22 00:08:00;;;;;;;8.95;6.43;;;;;;;;;;4910749;29;20111;-80
2023/09/22 00:10:25;;;;;;;8.20;5.75;;;;;;;;;;4912132;29;20060;-80
2023/09/22 00:12:51;;;;;;;9.90;5.80;;;;;;;;;;4912380;29;20036;-80
2023/09/22 00:15:17;;;;;;;8.75;6.32;;;;;;;;;;4910467;29;20037;-80
2023/09/22 00:17:42;;;;;;;8.93;6.85;;;;;;;;;;4912629;29;20043;-81
2023/09/22 00:20:08;;;;;;;8.95;6.72;;;;;;;;;;4913281;29;20041;-80
2023/09/22 00:22:33;;;;;;;8.63;6.63;;;;;;;;;;4909593;29;20032;-79
2023/09/22 00:24:59;;;;;;;8.02;5.80;;;;;;;;;;4917347;29;20431;-80
2023/09/22 00:27:24;;;;;;;10.90;6.53;;;;;;;;;;4917594;29;20036;-80
2023/09/22 00:29:49;;;;;;;9.50;6.30;;;;;;;;;;4903032;29;20039;-80
2023/09/22 00:32:14;;;;;;;8.32;5.68;;;;;;;;;;4911563;29;20060;-80
2023/09/22 00:34:40;;;;;;;7.80;6.30;;;;;;;;;;4910162;29;20110;-80
2023/09/22 00:37:05;;;;;;;14.10;7.88;;;;;;;;;;4911042;29;20288;-80
2023/09/22 00:39:30;;;;;;;8.13;6.15;;;;;;;;;;4912861;29;20043;-80
2023/09/22 00:41:57;;;;;;;12.38;9.52;;;;;;;;;;4910804;29;20040;-80
2023/09/22 00:44:22;;;;;;;9.10;6.82;;;;;;;;;;4909939;29;20033;-80
2023/09/22 00:46:47;;;;;;;12.05;7.47;;;;;;;;;;4905327;29;20550;-80
2023/09/22 00:49:13;;;;;;;11.10;9.57;;;;;;;;;;4913089;29;20072;-80
2023/09/22 00:51:39;;;;;;;9.02;7.38;;;;;;;;;;4909515;29;20085;-80
2023/09/22 00:54:04;;;;;;;8.45;6.38;;;;;;;;;;4904207;29;20064;-80
2023/09/22 00:56:29;;;;;;;7.70;4.93;;;;;;;;;;4928079;29;20405;-80
2023/09/22 00:58:55;;;;;;;8.45;5.70;;;;;;;;;;4902557;29;20036;-80
2023/09/22 01:01:20;;;;;;;8.23;5.40;;;;;;;;;;4912107;29;20501;-80
2023/09/22 01:03:48;;;;;;;8.63;6.93;;;;;;;;;;4905901;29;20028;-80
2023/09/22 01:06:13;;;;;;;9.45;5.72;;;;;;;;;;4923502;29;20040;-80
2023/09/22 01:08:38;;;;;;;7.43;5.53;;;;;;;;;;4908419;29;20028;-80
2023/09/22 01:11:04;;;;;;;9.80;7.77;;;;;;;;;;4907283;29;20029;-80
2023/09/22 01:13:30;;;;;;;12.43;7.85;;;;;;;;;;4913369;29;20272;-80
2023/09/22 01:15:56;;;;;;;9.10;7.90;;;;;;;;;;4908500;29;20047;-80
2023/09/22 01:18:22;;;;;;;11.20;8.98;;;;;;;;;;4915985;29;20044;-80
2023/09/22 01:20:47;;;;;;;8.00;6.88;;;;;;;;;;4906626;29;20055;-80
2023/09/22 01:23:13;;;;;;;15.57;9.70;;;;;;;;;;4895351;29;20043;-79
2023/09/22 01:25:39;;;;;;;9.30;6.35;;;;;;;;;;4907742;29;20285;-80
2023/09/22 01:28:05;;;;;;;9.63;7.13;;;;;;;;;;4910377;29;20037;-79
2023/09/22 01:30:32;;;;;;;9.18;6.22;;;;;;;;;;4906444;29;20032;-79
2023/09/22 01:32:58;;;;;;;10.48;6.88;;;;;;;;;;4909363;29;20056;-80
2023/09/22 01:35:23;;;;;;;10.88;5.85;;;;;;;;;;4912962;29;20032;-80
2023/09/22 01:37:55;;;;;;;7.38;5.35;;;;;;;;;;4909029;29;20036;-79
2023/09/22 01:40:20;;;;;;;7.80;5.18;;;;;;;;;;4908503;29;20046;-80
2023/09/22 01:42:46;;;;;;;7.32;4.72;;;;;;;;;;4908935;29;20033;-80
2023/09/22 01:45:11;;;;;;;6.38;3.92;;;;;;;;;;4909007;29;20024;-80
2023/09/22 01:47:39;;;;;;;5.30;2.80;;;;;;;;;;4914001;29;20044;-81
2023/09/22 01:50:07;;;;;;;5.97;4.25;;;;;;;;;;4923613;29;20025;-80
2023/09/22 01:52:32;;;;;;;3.65;2.05;;;;;;;;;;4911461;29;20560;-80
2023/09/22 01:54:57;;;;;;;4.40;1.90;;;;;;;;;;4903888;29;20108;-80
2023/09/22 01:57:23;;;;;;;3.58;1.50;;;;;;;;;;4912890;29;20276;-80
2023/09/22 01:59:49;;;;;;;3.28;1.42;;;;;;;;;;4906088;29;20595;-80
2023/09/22 02:02:14;;;;;;;2.20;0.98;;;;;;;;;;4908018;29;20118;-80
2023/09/22 02:04:39;;;;;;;1.42;0.73;;;;;;;;;;4916261;29;20028;-80
2023/09/22 02:07:04;;;;;;;2.63;0.77;;;;;;;;;;4909130;29;20060;-81
2023/09/22 02:09:30;;;;;;;2.03;0.93;;;;;;;;;;4905954;29;20039;-80
2023/09/22 02:11:55;;;;;;;3.42;1.27;;;;;;;;;;4889672;29;20276;-80
2023/09/22 02:14:20;;;;;;;1.02;0.40;;;;;;;;;;4907261;29;20037;-81
2023/09/22 02:16:46;;;;;;;3.40;0.70;;;;;;;;;;4912749;29;20036;-80
2023/09/22 02:19:11;;;;;;;2.90;0.50;;;;;;;;;;4911577;29;20545;-80
2023/09/22 02:21:37;;;;;;;1.73;0.32;;;;;;;;;;4908387;29;20312;-80
2023/09/22 02:24:03;;;;;;;1.75;0.35;;;;;;;;;;4906591;29;20025;-80
2023/09/22 02:26:28;;;;;;;1.10;0.32;;;;;;;;;;4911747;29;20477;-80
2023/09/22 02:28:53;;;;;;;1.17;0.20;;;;;;;;;;4914611;29;20032;-81
2023/09/22 02:31:20;;;;;;;1.92;0.40;;;;;;;;;;4911647;29;20072;-80
2023/09/22 02:33:48;;;;;;;3.20;0.60;;;;;;;;;;4909050;29;20032;-80
2023/09/22 02:36:13;;;;;;;1.10;0.50;;;;;;;;;;4909137;29;20071;-80
2023/09/22 02:38:39;;;;;;;2.83;0.40;;;;;;;;;;4905116;29;20132;-80
2023/09/22 02:41:04;;;;;;;2.20;0.50;;;;;;;;;;4910581;29;20460;-80
2023/09/22 02:43:29;;;;;;;0.97;0.40;;;;;;;;;;4910131;29;20359;-80
2023/09/22 02:45:55;;;;;;;1.10;0.30;;;;;;;;;;4910918;29;20283;-80
2023/09/22 02:48:20;;;;;;;2.77;0.30;;;;;;;;;;4906126;29;20281;-80
2023/09/22 02:50:46;;;;;;;0.80;0.30;;;;;;;;;;4909751;29;20273;-80
2023/09/22 02:53:11;;;;;;;0.90;0.30;;;;;;;;;;4910577;29;20319;-80
2023/09/22 02:55:40;;;;;;;1.90;0.30;;;;;;;;;;4911778;29;20028;-80
2023/09/22 02:58:05;;;;;;;0.00;0.00;;;;;;;;;;4901855;29;20285;-80
2023/09/22 03:00:31;;;;;;;0.77;0.17;;;;;;;;;;4911843;29;20052;-80
2023/09/22 03:02:56;;;;;;;1.77;0.32;;;;;;;;;;4907426;29;20523;-80
2023/09/22 03:05:23;;;;;;;0.90;0.10;;;;;;;;;;4894806;29;20028;-80
2023/09/22 03:07:52;;;;;;;0.85;0.20;;;;;;;;;;4901150;29;20111;-79
2023/09/22 03:10:18;;;;;;;0.80;0.22;;;;;;;;;;4905057;29;20091;-80
2023/09/22 03:12:44;;;;;;;0.30;0.10;;;;;;;;;;4908368;29;20126;-80
2023/09/22 03:15:09;;;;;;;0.82;0.20;;;;;;;;;;4900419;29;20123;-80
2023/09/22 03:17:36;;;;;;;0.63;0.20;;;;;;;;;;4925058;29;20060;-80
2023/09/22 03:20:02;;;;;;;0.60;0.15;;;;;;;;;;4910833;29;20758;-81
2023/09/22 03:22:27;;;;;;;0.65;0.10;;;;;;;;;;4905914;29;20061;-80
2023/09/22 03:24:53;;;;;;;0.30;0.15;;;;;;;;;;4910595;29;20044;-80
2023/09/22 03:27:19;;;;;;;0.30;0.10;;;;;;;;;;4910142;29;20079;-81
2023/09/22 03:29:45;;;;;;;0.52;0.10;;;;;;;;;;4903102;29;20043;-81
2023/09/22 03:32:10;;;;;;;0.20;0.10;;;;;;;;;;4907641;29;20040;-80
2023/09/22 03:34:36;;;;;;;1.55;0.25;;;;;;;;;;4908252;29;20087;-80
2023/09/22 03:37:01;;;;;;;1.73;0.10;;;;;;;;;;4913098;29;20119;-81
2023/09/22 03:39:28;;;;;;;0.73;0.20;;;;;;;;;;4908785;29;20024;-80
2023/09/22 03:41:54;;;;;;;0.43;0.10;;;;;;;;;;4907413;29;20098;-81
2023/09/22 03:44:22;;;;;;;0.38;0.10;;;;;;;;;;4908455;29;20029;-80
2023/09/22 03:46:47;;;;;;;0.55;0.10;;;;;;;;;;4886999;29;20029;-81
2023/09/22 03:49:12;;;;;;;0.88;0.30;;;;;;;;;;4908696;29;20035;-80
2023/09/22 03:51:38;;;;;;;2.07;0.20;;;;;;;;;;4905483;29;20091;-81
2023/09/22 03:54:03;;;;;;;0.45;0.15;;;;;;;;;;4891570;29;20665;-81
2023/09/22 03:56:28;;;;;;;0.52;0.10;;;;;;;;;;4906172;29;20091;-79
2023/09/22 03:58:54;;;;;;;0.43;0.10;;;;;;;;;;4904106;29;20394;-80
2023/09/22 04:01:19;;;;;;;1.17;0.20;;;;;;;;;;4909750;29;20024;-80
2023/09/22 04:03:47;;;;;;;2.53;0.20;;;;;;;;;;4910224;29;20289;-81
2023/09/22 04:06:12;;;;;;;0.75;0.17;;;;;;;;;;4910187;29;20032;-80
2023/09/22 04:08:37;;;;;;;0.45;0.20;;;;;;;;;;4904856;29;20028;-80
2023/09/22 04:11:02;;;;;;;0.57;0.27;;;;;;;;;;4907785;29;20025;-80
2023/09/22 04:13:28;;;;;;;0.83;0.20;;;;;;;;;;4909053;29;20701;-81
2023/09/22 04:15:58;;;;;;;1.75;0.20;;;;;;;;;;4905668;29;20312;-80
2023/09/22 04:18:24;;;;;;;2.30;0.22;;;;;;;;;;4914139;29;20092;-80
2023/09/22 04:20:50;;;;;;;1.20;0.10;;;;;;;;;;4902521;29;20032;-80
2023/09/22 04:23:16;;;;;;;5.53;1.95;;;;;;;;;;4926356;29;20040;-80
2023/09/22 04:25:42;;;;;;;3.90;1.30;;;;;;;;;;4898262;29;20035;-80
2023/09/22 04:28:09;;;;;;;2.97;1.42;;;;;;;;;;4902632;29;20749;-80
2023/09/22 04:30:38;;;;;;;2.45;0.20;;;;;;;;;;4923251;29;20129;-80
2023/09/22 04:33:04;;;;;;;0.73;0.30;;;;;;;;;;4907659;29;20040;-80
2023/09/22 04:35:32;;;;;;;2.22;0.28;;;;;;;;;;4913558;29;20051;-80
2023/09/22 04:37:58;;;;;;;1.25;0.20;;;;;;;;;;4912480;29;20485;-79
2023/09/22 04:40:24;;;;;;;5.18;0.55;;;;;;;;;;4911357;29;20045;-79
2023/09/22 04:42:53;;;;;;;1.52;0.43;;;;;;;;;;4905031;29;20048;-79
2023/09/22 04:45:18;;;;;;;1.70;0.43;;;;;;;;;;4910299;29;20107;-80
2023/09/22 04:47:44;;;;;;;2.73;0.57;;;;;;;;;;4905316;29;20068;-80
2023/09/22 04:50:11;;;;;;;1.80;0.30;;;;;;;;;;4900869;29;20847;-79
2023/09/22 04:52:36;;;;;;;3.60;0.70;;;;;;;;;;4910152;29;20040;-80
2023/09/22 04:55:01;;;;;;;3.13;0.60;;;;;;;;;;4906763;29;20036;-80
2023/09/22 04:57:27;;;;;;;2.22;0.52;;;;;;;;;;4912371;29;20055;-80
2023/09/22 04:59:53;;;;;;;3.73;0.57;;;;;;;;;;4908308;29;20110;-80
2023/09/22 05:02:18;;;;;;;1.67;0.50;;;;;;;;;;4891985;29;20801;-80
2023/09/22 05:04:43;;;;;;;2.30;0.70;;;;;;;;;;4915375;29;20035;-79
2023/09/22 05:07:09;;;;;;;2.28;0.65;;;;;;;;;;4908936;29;20039;-80
2023/09/22 05:09:34;;;;;;;3.10;0.60;;;;;;;;;;4905312;29;20040;-80
2023/09/22 05:12:00;;;;;;;3.88;0.63;;;;;;;;;;4911416;29;20055;-79
2023/09/22 05:14:26;;;;;;;2.22;0.60;;;;;;;;;;4907075;29;20028;-80
2023/09/22 05:16:51;;;;;;;2.25;0.60;;;;;;;;;;4909102;29;20063;-79
2023/09/22 05:19:17;;;;;;;4.75;0.88;;;;;;;;;;4908501;29;20060;-80
2023/09/22 05:21:42;;;;;;;3.35;0.75;;;;;;;;;;4912074;29;20119;-80
2023/09/22 05:24:07;;;;;;;2.00;0.50;;;;;;;;;;4908661;29;20044;-80
2023/09/22 05:26:33;;;;;;;2.72;1.00;;;;;;;;;;4909020;29;20036;-80
2023/09/22 05:28:58;;;;;;;1.65;0.40;;;;;;;;;;4904569;29;20055;-80
2023/09/22 05:31:23;;;;;;;1.80;0.60;;;;;;;;;;4909509;29;20047;-80
2023/09/22 05:33:48;;;;;;;3.35;0.60;;;;;;;;;;4910043;29;20057;-80
2023/09/22 05:36:13;;;;;;;3.63;0.80;;;;;;;;;;4906753;29;20029;-80
2023/09/22 05:38:39;;;;;;;3.38;0.75;;;;;;;;;;4911879;29;20379;-80
2023/09/22 05:41:04;;;;;;;6.85;3.22;;;;;;;;;;4909465;29;20056;-80
2023/09/22 05:43:32;;;;;;;4.07;1.73;;;;;;;;;;4915177;29;20047;-79
2023/09/22 05:45:57;;;;;;;3.15;1.05;;;;;;;;;;4916962;29;20036;-80
2023/09/22 05:48:22;;;;;;;4.60;0.95;;;;;;;;;;4908460;29;20067;-80
2023/09/22 05:53:52;;;;;;;2.72;0.60;;;;;;;;;;4906209;29;20060;-79
2023/09/22 05:56:17;;;;;;;1.15;0.40;;;;;;;;;;4911552;29;20414;-80
2023/09/22 05:58:42;;;;;;;2.83;0.80;;;;;;;;;;4915699;29;20074;-80
2023/09/22 06:01:08;;;;;;;1.92;0.60;;;;;;;;;;4908064;29;20340;-80
2023/09/22 06:03:34;;;;;;;1.77;0.50;;;;;;;;;;4911493;29;20094;-80
2023/09/22 06:06:04;;;;;;;3.33;0.50;;;;;;;;;;4908293;29;20052;-80
2023/09/22 06:08:30;;;;;;;3.03;0.70;;;;;;;;;;4910356;29;20109;-80
2023/09/22 06:10:56;;;;;;;2.45;0.50;;;;;;;;;;4908700;29;20036;-80
2023/09/22 06:13:21;;;;;;;2.05;0.50;;;;;;;;;;4908873;29;20044;-80
2023/09/22 06:15:46;;;;;;;1.35;0.43;;;;;;;;;;4903926;29;20032;-80
2023/09/22 06:18:14;;;;;;;2.67;0.80;;;;;;;;;;4899806;29;20040;-80
2023/09/22 06:20:39;;;;;;;2.53;0.70;;;;;;;;;;4902021;29;20277;-80
2023/09/22 06:23:04;;;;;;;2.40;0.60;;;;;;;;;;4905834;29;20538;-79
2023/09/22 06:25:30;;;;;;;2.47;0.80;;;;;;;;;;4911838;29;20552;-80
2023/09/22 06:27:55;;;;;;;0.87;0.40;;;;;;;;;;4912631;29;20269;-80
2023/09/22 06:30:20;;;;;;;3.03;1.07;;;;;;;;;;4907789;29;20864;-81
2023/09/22 06:32:46;;;;;;;2.67;0.80;;;;;;;;;;4907055;29;20288;-80
2023/09/22 06:35:11;;;;;;;2.75;1.00;;;;;;;;;;4910737;29;20048;-80
2023/09/22 06:37:37;;;;;;;3.15;1.20;;;;;;;;;;4912252;29;20036;-80
2023/09/22 06:40:06;;;;;;;1.88;0.60;;;;;;;;;;4910323;29;20047;-80
2023/09/22 06:42:31;;;;;;;1.90;0.63;;;;;;;;;;4907433;29;20128;-80
2023/09/22 06:44:57;;;;;;;4.47;0.90;;;;;;;;;;4901249;29;20020;-81
2023/09/22 06:47:24;;;;;;;3.33;0.80;;;;;;;;;;4903076;29;20373;-80
2023/09/22 06:49:49;;;;;;;2.38;0.70;;;;;;;;;;4908014;29;20099;-80
2023/09/22 06:52:14;;;;;;;2.28;0.80;;;;;;;;;;4909711;29;20523;-80
2023/09/22 06:54:40;;;;;;;2.30;0.65;;;;;;;;;;4908866;29;20032;-80
2023/09/22 06:57:05;;;;;;;3.15;0.80;;;;;;;;;;4906848;29;20042;-79
2023/09/22 06:59:31;;;;;;;3.40;1.43;;;;;;;;;;4906964;29;20111;-80
2023/09/22 07:01:57;;;;;;;3.10;0.90;;;;;;;;;;4908630;29;20367;-79
2023/09/22 07:04:22;;;;;;;2.27;0.80;;;;;;;;;;4911920;29;20074;-80
2023/09/22 07:06:47;;;;;;;2.25;0.90;;;;;;;;;;4907717;29;20280;-80
2023/09/22 07:09:13;;;;;;;2.90;1.10;;;;;;;;;;4910943;29;20118;-80
2023/09/22 07:11:40;;;;;;;3.72;1.05;;;;;;;;;;4911423;29;20040;-80
2023/09/22 07:14:07;;;;;;;2.42;0.93;;;;;;;;;;4908425;29;20070;-80
2023/09/22 07:16:32;;;;;;;3.30;1.65;;;;;;;;;;4911397;29;20111;-80
2023/09/22 07:18:57;;;;;;;3.75;0.95;;;;;;;;;;4907439;29;20063;-80
2023/09/22 07:21:23;;;;;;;3.13;1.20;;;;;;;;;;4912963;29;20036;-80
2023/09/22 07:23:48;;;;;;;1.58;0.65;;;;;;;;;;4910472;29;20360;-80
2023/09/22 07:26:13;;;;;;;4.00;0.80;;;;;;;;;;4908149;29;20032;-79
2023/09/22 07:28:39;;;;;;;4.13;1.10;;;;;;;;;;4910815;29;20279;-80
2023/09/22 07:31:14;;;;;;;5.43;0.90;;;;;;;;;;4901849;29;20699;-81
2023/09/22 07:33:40;;;;;;;3.00;1.17;;;;;;;;;;4912162;29;20044;-80
2023/09/22 07:36:07;;;;;;;3.03;0.75;;;;;;;;;;4907667;29;20429;-80
2023/09/22 07:38:33;;;;;;;3.45;0.75;;;;;;;;;;4910888;29;20036;-81
2023/09/22 07:40:59;;;;;;;6.25;1.10;;;;;;;;;;4907480;29;20044;-80
2023/09/22 07:43:29;;;;;;;1.70;0.68;;;;;;;;;;4907042;29;20529;-80
2023/09/22 07:45:54;;;;;;;2.00;0.80;;;;;;;;;;4896393;29;20386;-80
2023/09/22 07:48:19;;;;;;;3.25;0.88;;;;;;;;;;4912104;29;20030;-81
2023/09/22 07:50:44;;;;;;;2.78;1.05;;;;;;;;;;4908233;29;20052;-80
2023/09/22 07:53:09;;;;;;;1.80;0.90;;;;;;;;;;4904190;29;20119;-79
2023/09/22 07:55:35;;;;;;;2.60;1.30;;;;;;;;;;4910315;29;20303;-80
2023/09/22 07:58:03;;;;;;;4.70;1.55;;;;;;;;;;4908037;29;20048;-80
2023/09/22 08:00:29;;;;;;;2.05;0.95;;;;;;;;;;4920924;29;20031;-80
2023/09/22 08:02:54;;;;;;;2.78;1.10;;;;;;;;;;4914498;29;20401;-80
2023/09/22 08:05:20;;;;;;;2.40;1.17;;;;;;;;;;4908722;29;20024;-80
2023/09/22 08:07:46;;;;;;;3.25;1.60;;;;;;;;;;4912021;29;20032;-80
2023/09/22 08:10:11;;;;;;;3.90;1.30;;;;;;;;;;4910329;29;20029;-81
2023/09/22 08:12:41;;;;;;;2.72;0.98;;;;;;;;;;4914285;29;20111;-80
2023/09/22 08:15:07;;;;;;;3.78;1.98;;;;;;;;;;4915114;29;20060;-80
2023/09/22 08:17:32;;;;;;;2.83;1.45;;;;;;;;;;4912375;29;20051;-80
2023/09/22 08:19:57;;;;;;;4.23;2.00;;;;;;;;;;4904346;29;20031;-80
2023/09/22 08:22:25;;;;;;;4.03;1.40;;;;;;;;;;4907456;29;20773;-80
2023/09/22 08:24:50;;;;;;;3.35;1.40;;;;;;;;;;4912728;29;20083;-80
2023/09/22 08:27:15;;;;;;;4.03;1.37;;;;;;;;;;4925367;29;20041;-80
2023/09/22 08:29:40;;;;;;;2.97;1.00;;;;;;;;;;4908839;29;20653;-80
2023/09/22 08:32:06;;;;;;;4.57;1.90;;;;;;;;;;4912637;29;20037;-80
2023/09/22 08:34:35;;;;;;;2.25;1.10;;;;;;;;;;4907860;29;20380;-80
2023/09/22 08:37:00;;;;;;;3.60;1.65;;;;;;;;;;4903500;29;20061;-79
2023/09/22 08:39:25;;;;;;;3.63;1.42;;;;;;;;;;4907897;29;20047;-80
2023/09/22 08:41:51;;;;;;;2.90;1.20;;;;;;;;;;4911923;29;20033;-80
2023/09/22 08:44:16;;;;;;;3.25;1.10;;;;;;;;;;4914105;29;20025;-80
2023/09/22 08:46:42;;;;;;;3.88;1.23;;;;;;;;;;4911363;29;20052;-80
2023/09/22 08:49:08;;;;;;;3.38;1.40;;;;;;;;;;4914026;29;20387;-80
2023/09/22 08:51:33;;;;;;;3.53;1.03;;;;;;;;;;4906886;29;20087;-80
2023/09/22 08:53:58;;;;;;;3.90;1.30;;;;;;;;;;4908119;29;20289;-79
2023/09/22 08:56:24;;;;;;;2.83;0.90;;;;;;;;;;4913617;29;20032;-80
2023/09/22 08:58:51;;;;;;;2.00;0.70;;;;;;;;;;4910787;29;20776;-80
2023/09/22 09:01:16;;;;;;;3.45;1.40;;;;;;;;;;4907894;29;20028;-80
2023/09/22 09:03:41;;;;;;;3.57;1.00;;;;;;;;;;4909169;29;20032;-80
2023/09/22 09:06:07;;;;;;;2.60;1.03;;;;;;;;;;4902271;29;20842;-80
2023/09/22 09:08:34;;;;;;;2.40;0.95;;;;;;;;;;4910636;29;20765;-79
2023/09/22 09:11:04;;;;;;;2.78;0.88;;;;;;;;;;4912145;29;20037;-80
2023/09/22 09:13:29;;;;;;;3.88;1.20;;;;;;;;;;4907051;29;20504;-80
2023/09/22 09:15:55;;;;;;;2.05;0.70;;;;;;;;;;4912247;29;20055;-80
2023/09/22 09:18:21;;;;;;;2.25;0.80;;;;;;;;;;4910398;29;20114;-80
2023/09/22 09:20:47;;;;;;;3.45;1.10;;;;;;;;;;4912540;29;20036;-78
2023/09/22 09:23:19;;;;;;;4.78;1.50;;;;;;;;;;4895611;29;20037;-80
2023/09/22 09:25:45;;;;;;;2.53;0.90;;;;;;;;;;4913752;29;20044;-80
2023/09/22 09:28:12;;;;;;;1.40;0.73;;;;;;;;;;4911407;29;20028;-79
2023/09/22 09:30:38;;;;;;;1.85;0.65;;;;;;;;;;4905302;29;20036;-80
2023/09/22 09:33:10;;;;;;;4.10;1.48;;;;;;;;;;4909828;29;20466;-79
2023/09/22 09:35:36;;;;;;;2.13;0.65;;;;;;;;;;4910559;29;20099;-79
2023/09/22 09:38:02;;;;;;;3.47;1.27;;;;;;;;;;4912362;29;20491;-80
2023/09/22 09:40:27;;;;;;;3.40;1.05;;;;;;;;;;4907334;29;20040;-79
2023/09/22 09:42:54;;;;;;;3.10;1.30;;;;;;;;;;4911887;29;20029;-80
2023/09/22 09:45:20;;;;;;;4.30;1.77;;;;;;;;;;4903521;29;20273;-79
2023/09/22 09:47:45;;;;;;;3.72;1.55;;;;;;;;;;4909640;29;20048;-79
2023/09/22 09:50:12;;;;;;;4.03;1.73;;;;;;;;;;4912501;29;20114;-80
2023/09/22 09:52:51;;;;;;;3.10;1.42;;;;;;;;;;4911257;29;20036;-80
2023/09/22 09:55:17;;;;;;;3.22;1.20;;;;;;;;;;4907020;29;20127;-80
2023/09/22 09:57:43;;;;;;;4.97;1.70;;;;;;;;;;4912753;29;20120;-80
2023/09/22 10:00:21;;;;;;;5.72;2.20;;;;;;;;;;4901794;29;20032;-80
2023/09/22 10:02:47;;;;;;;4.50;1.42;;;;;;;;;;4907046;29;20035;-79
2023/09/22 10:05:17;;;;;;;2.45;1.10;;;;;;;;;;4908937;29;20059;-79
2023/09/22 10:07:43;;;;;;;2.40;0.98;;;;;;;;;;4910303;29;20115;-79
2023/09/22 10:10:09;;;;;;;3.33;1.38;;;;;;;;;;4910939;29;20054;-79
2023/09/22 10:12:34;;;;;;;3.85;1.20;;;;;;;;;;4907981;29;20035;-79
2023/09/22 10:15:04;;;;;;;2.17;1.00;;;;;;;;;;4896699;29;20032;-79
2023/09/22 10:17:30;;;;;;;2.75;1.00;;;;;;;;;;4906159;29;20028;-79
2023/09/22 10:19:55;;;;;;;7.85;1.25;;;;;;;;;;4905600;29;20047;-79
2023/09/22 10:22:21;;;;;;;3.05;1.02;;;;;;;;;;4894436;29;20036;-79
2023/09/22 10:24:46;;;;;;;3.57;1.20;;;;;;;;;;4906613;29;20086;-79
2023/09/22 10:27:13;;;;;;;4.18;1.73;;;;;;;;;;4904398;29;20277;-78
2023/09/22 10:29:41;;;;;;;4.68;2.28;;;;;;;;;;4898250;29;20048;-79
2023/09/22 10:32:15;;;;;;;3.50;1.60;;;;;;;;;;4906203;29;20037;-79
2023/09/22 10:35:05;;;;;;;3.85;1.85;;;;;;;;;;4908352;29;20048;-79
2023/09/22 10:37:33;;;;;;;5.57;1.60;;;;;;;;;;4922944;29;20403;-80
2023/09/22 10:40:12;;;;;;;3.08;1.50;;;;;;;;;;4907417;29;20187;-80
2023/09/22 10:42:41;;;;;;;6.00;1.92;;;;;;;;;;4907945;29;20042;-80
2023/09/22 10:45:07;;;;;;;4.65;1.65;;;;;;;;;;4907202;29;20036;-79
2023/09/22 10:47:37;;;;;;;3.15;1.40;;;;;;;;;;4886016;29;20087;-79
2023/09/22 10:50:26;;;;;;;3.72;1.80;;;;;;;;;;4912147;29;20036;-79
2023/09/22 10:52:55;;;;;;;3.88;1.73;;;;;;;;;;4909713;29;20047;-79
2023/09/22 10:55:21;;;;;;;2.97;1.30;;;;;;;;;;4906326;29;20489;-79
2023/09/22 10:57:46;;;;;;;2.80;1.00;;;;;;;;;;4898232;29;20033;-80
2023/09/22 11:00:26;;;;;;;2.80;1.10;;;;;;;;;;4906322;29;20040;-79
2023/09/22 11:03:27;;;;;;;4.45;1.92;;;;;;;;;;4966908;23;20453;-79
2023/09/22 11:05:56;;;;;;;4.40;1.63;;;;;;;;;;4927010;28;20040;-78
2023/09/22 11:08:23;;;;;;;2.55;1.27;;;;;;;;;;4913727;29;20032;-80
2023/09/22 11:10:49;;;;;;;2.30;0.82;;;;;;;;;;4916111;29;20123;-76
2023/09/22 11:13:14;;;;;;;5.07;1.10;;;;;;;;;;4916248;29;20618;-80
2023/09/22 11:15:46;;;;;;;2.33;1.10;;;;;;;;;;4912617;29;20040;-80
2023/09/22 11:18:17;;;;;;;2.53;1.15;;;;;;;;;;4912577;29;20038;-80
2023/09/22 11:20:43;;;;;;;2.85;1.35;;;;;;;;;;4909785;29;20071;-80
2023/09/22 11:23:08;;;;;;;2.28;0.80;;;;;;;;;;4915765;29;20044;-78
2023/09/22 11:25:34;;;;;;;3.20;1.00;;;;;;;;;;4917056;29;20040;-80
2023/09/22 11:27:59;;;;;;;3.85;2.00;;;;;;;;;;4914110;29;20116;-80
2023/09/22 11:30:28;;;;;;;2.85;1.23;;;;;;;;;;4914554;29;20032;-79
2023/09/22 11:32:54;;;;;;;4.13;1.40;;;;;;;;;;4909606;29;20028;-79
2023/09/22 11:35:39;;;;;;;2.10;0.98;;;;;;;;;;4906638;29;20033;-80
2023/09/22 11:38:27;;;;;;;3.97;1.13;;;;;;;;;;4916117;29;20036;-78
2023/09/22 11:41:12;;;;;;;1.83;0.90;;;;;;;;;;4907172;29;20028;-80
2023/09/22 11:43:44;;;;;;;3.30;1.10;;;;;;;;;;4915825;29;20028;-79
2023/09/22 11:46:14;;;;;;;2.97;1.20;;;;;;;;;;4905420;29;20035;-79
2023/09/22 11:48:52;;;;;;;3.70;1.25;;;;;;;;;;4909071;29;20064;-79
2023/09/22 11:51:17;;;;;;;2.63;1.27;;;;;;;;;;4901950;29;20101;-78
2023/09/22 11:53:43;;;;;;;3.17;1.08;;;;;;;;;;4910567;29;20036;-78
2023/09/22 11:56:08;;;;;;;4.03;1.60;;;;;;;;;;4909041;29;20571;-80
2023/09/22 11:58:34;;;;;;;2.53;1.13;;;;;;;;;;4913153;29;20453;-80
2023/09/22 12:01:00;;;;;;;2.95;1.17;;;;;;;;;;4910593;29;20025;-79
2023/09/22 12:03:25;;;;;;;4.85;2.50;;;;;;;;;;4909502;29;20036;-79
2023/09/22 12:05:51;;;;;;;3.17;1.50;;;;;;;;;;4907642;29;20087;-80
2023/09/22 12:08:16;;;;;;;4.65;1.98;;;;;;;;;;4910786;29;20029;-80
2023/09/22 12:10:41;;;;;;;3.30;1.75;;;;;;;;;;4910561;29;20020;-79
2023/09/22 12:13:07;;;;;;;3.63;1.80;;;;;;;;;;4910283;29;20421;-80
2023/09/22 12:15:32;;;;;;;3.22;1.55;;;;;;;;;;4912549;29;20028;-79
2023/09/22 12:17:58;;;;;;;3.97;1.50;;;;;;;;;;4896170;29;20032;-80
2023/09/22 12:20:23;;;;;;;4.15;1.80;;;;;;;;;;4911059;29;20028;-78
2023/09/22 12:22:48;;;;;;;3.37;1.37;;;;;;;;;;4907508;29;20144;-79
2023/09/22 12:25:14;;;;;;;3.67;1.17;;;;;;;;;;4909598;29;20264;-79
2023/09/22 12:27:39;;;;;;;5.20;1.50;;;;;;;;;;4911371;29;20257;-78
2023/09/22 12:30:06;;;;;;;3.87;2.10;;;;;;;;;;4911195;29;20405;-79
2023/09/22 12:32:32;;;;;;;3.65;1.65;;;;;;;;;;4916112;29;20276;-80
2023/09/22 12:34:59;;;;;;;3.22;1.73;;;;;;;;;;4912130;29;20101;-79
2023/09/22 12:37:25;;;;;;;4.68;2.17;;;;;;;;;;4907580;29;20093;-79
2023/09/22 12:39:50;;;;;;;3.17;1.67;;;;;;;;;;4906683;29;20083;-76
2023/09/22 12:42:16;;;;;;;3.53;1.52;;;;;;;;;;4909947;29;20071;-79
2023/09/22 12:44:41;;;;;;;3.65;1.35;;;;;;;;;;4907044;29;20055;-79
2023/09/22 12:47:08;;;;;;;4.90;1.25;;;;;;;;;;4909372;29;20033;-79
2023/09/22 12:49:33;;;;;;;3.15;1.48;;;;;;;;;;4916225;29;20034;-78
2023/09/22 12:51:59;;;;;;;4.07;1.43;;;;;;;;;;4911841;29;20481;-80
2023/09/22 12:54:24;;;;;;;3.25;1.33;;;;;;;;;;4914223;29;20280;-80
2023/09/22 12:56:49;;;;;;;3.75;1.38;;;;;;;;;;4908815;29;20033;-79
2023/09/22 12:59:15;;;;;;;3.30;1.50;;;;;;;;;;4919046;29;20489;-79
2023/09/22 13:01:40;;;;;;;4.65;1.90;;;;;;;;;;4906100;29;20367;-79
2023/09/22 13:04:06;;;;;;;3.53;1.58;;;;;;;;;;4912908;29;20071;-77
2023/09/22 13:06:31;;;;;;;5.75;1.50;;;;;;;;;;4915577;29;20028;-79
2023/09/22 13:08:56;;;;;;;3.87;1.30;;;;;;;;;;4911552;29;20043;-78
2023/09/22 13:11:21;;;;;;;4.85;1.98;;;;;;;;;;4915309;29;20355;-79
2023/09/22 13:13:47;;;;;;;3.80;1.20;;;;;;;;;;4915783;29;20128;-80
2023/09/22 13:16:13;;;;;;;4.10;1.50;;;;;;;;;;4916537;29;20292;-81
2023/09/22 13:18:38;;;;;;;5.25;1.38;;;;;;;;;;4915003;29;20028;-79
2023/09/22 13:21:10;;;;;;;2.30;1.00;;;;;;;;;;4913618;29;20047;-80
2023/09/22 13:23:35;;;;;;;3.15;1.13;;;;;;;;;;4913103;29;20292;-80
2023/09/22 13:26:04;;;;;;;4.32;1.58;;;;;;;;;;4914452;29;20378;-79
2023/09/22 13:28:29;;;;;;;2.80;1.05;;;;;;;;;;4914536;29;20047;-80
2023/09/22 13:30:54;;;;;;;3.20;1.60;;;;;;;;;;4910667;29;20032;-78
2023/09/22 13:33:23;;;;;;;3.63;1.52;;;;;;;;;;4910483;29;20280;-80
2023/09/22 13:35:48;;;;;;;5.03;1.30;;;;;;;;;;4911957;29;20036;-78
2023/09/22 13:38:15;;;;;;;4.95;1.33;;;;;;;;;;4912023;29;20505;-79
2023/09/22 13:40:41;;;;;;;4.28;1.83;;;;;;;;;;4909917;29;20036;-78
2023/09/22 13:43:07;;;;;;;2.42;1.02;;;;;;;;;;4909604;29;20040;-79
2023/09/22 13:45:33;;;;;;;3.40;1.60;;;;;;;;;;4916383;29;20031;-79
2023/09/22 13:47:58;;;;;;;1.95;0.88;;;;;;;;;;4913949;29;20032;-78
2023/09/22 13:50:23;;;;;;;3.97;0.90;;;;;;;;;;4912947;29;20041;-79
2023/09/22 13:52:49;;;;;;;2.38;1.00;;;;;;;;;;4914057;29;20285;-79
2023/09/22 13:55:15;;;;;;;3.37;0.80;;;;;;;;;;4914101;29;20028;-79
2023/09/22 13:57:41;;;;;;;3.05;0.90;;;;;;;;;;4921793;29;20798;-80
2023/09/22 14:00:10;;;;;;;1.63;0.90;;;;;;;;;;4900139;29;20072;-79
2023/09/22 14:02:38;;;;;;;2.65;0.93;;;;;;;;;;4908796;29;20032;-80
2023/09/22 14:05:03;;;;;;;2.90;1.00;;;;;;;;;;4914836;29;20408;-79
2023/09/22 14:07:29;;;;;;;5.75;3.28;;;;;;;;;;4912385;29;20055;-79
2023/09/22 14:09:54;;;;;;;3.80;1.27;;;;;;;;;;4915101;29;20039;-79
2023/09/22 14:12:19;;;;;;;2.33;0.97;;;;;;;;;;4914989;29;20275;-79
2023/09/22 14:14:44;;;;;;;3.67;1.00;;;;;;;;;;4913275;29;20280;-80
2023/09/22 14:17:09;;;;;;;2.22;0.80;;;;;;;;;;4913365;29;20284;-77
2023/09/22 14:19:36;;;;;;;4.63;1.20;;;;;;;;;;4911804;29;20144;-79
2023/09/22 14:22:03;;;;;;;2.83;0.95;;;;;;;;;;4911879;29;20123;-82
2023/09/22 14:24:28;;;;;;;1.60;0.82;;;;;;;;;;4916548;29;20040;-82
2023/09/22 14:26:53;;;;;;;3.95;1.10;;;;;;;;;;4916210;29;20035;-83
2023/09/22 14:29:18;;;;;;;2.85;0.93;;;;;;;;;;4918397;29;20097;-81
2023/09/22 14:31:44;;;;;;;5.10;1.53;;;;;;;;;;4915953;29;20028;-82
2023/09/22 14:34:09;;;;;;;4.03;1.70;;;;;;;;;;4913582;29;20284;-82
2023/09/22 14:36:34;;;;;;;8.83;2.20;;;;;;;;;;4917842;29;20308;-82
2023/09/22 14:38:59;;;;;;;5.22;1.50;;;;;;;;;;4916223;29;20664;-84
2023/09/22 14:41:25;;;;;;;2.53;0.93;;;;;;;;;;4915301;29;20159;-80